Time;durP1;ratioP1;P1;durP2;ratioP2;P2;SDS_P1;SDS_P2;PMS_P1;PMS_P2;Temp;Humidity;BMP_temperature;BMP_pressure;BME280_temperature;BME280_humidity;BME280_pressure;Samples;Min_cycle;Max_cycle;Signal;HPM_P1;HPM_P2
2023/10/28 00:00:04;;;;;;;1.30;1.03;;;11.80;1.00;;;;;;5098229;28;20258;-77
2023/10/28 00:02:30;;;;;;;1.20;1.00;;;11.80;1.00;;;;;;5101338;28;20354;-78
2023/10/28 00:04:55;;;;;;;1.53;1.00;;;11.70;1.00;;;;;;5097165;28;20424;-77
2023/10/28 00:07:21;;;;;;;1.87;1.00;;;11.70;1.00;;;;;;5091623;28;20191;-77
2023/10/28 00:09:46;;;;;;;1.77;1.00;;;11.60;1.00;;;;;;5100690;28;20171;-79
2023/10/28 00:12:14;;;;;;;10.67;1.03;;;11.60;1.00;;;;;;5098006;28;20266;-78
2023/10/28 00:14:40;;;;;;;1.50;1.00;;;11.50;1.00;;;;;;5099550;28;20210;-77
2023/10/28 00:17:06;;;;;;;1.00;0.80;;;11.40;1.00;;;;;;5093092;28;20445;-78
2023/10/28 00:19:32;;;;;;;1.70;0.90;;;11.40;1.00;;;;;;5091415;28;20919;-78
2023/10/28 00:21:57;;;;;;;1.30;1.00;;;11.40;1.00;;;;;;5094218;28;20167;-78
2023/10/28 00:24:23;;;;;;;1.70;1.13;;;11.40;1.00;;;;;;5090943;28;20434;-80
2023/10/28 00:26:48;;;;;;;1.20;0.90;;;11.40;1.00;;;;;;5100926;28;20207;-78
2023/10/28 00:29:14;;;;;;;1.10;0.90;;;11.40;1.00;;;;;;5105913;28;20201;-78
2023/10/28 00:31:40;;;;;;;6.10;1.50;;;11.40;1.00;;;;;;5096709;28;20180;-77
2023/10/28 00:34:06;;;;;;;1.03;0.80;;;11.30;1.00;;;;;;5100114;28;20214;-77
2023/10/28 00:36:31;;;;;;;1.20;0.90;;;11.30;1.00;;;;;;5097574;28;20844;-77
2023/10/28 00:38:57;;;;;;;1.30;1.00;;;11.30;1.00;;;;;;5107075;28;20854;-78
2023/10/28 00:41:22;;;;;;;1.30;1.00;;;11.30;1.00;;;;;;5100789;28;20609;-77
2023/10/28 00:43:48;;;;;;;11.60;1.20;;;11.30;1.00;;;;;;5102529;28;20182;-77
2023/10/28 00:46:14;;;;;;;1.60;1.20;;;11.30;1.00;;;;;;5097487;28;20657;-78
2023/10/28 00:48:40;;;;;;;1.20;0.90;;;11.20;1.00;;;;;;5098460;28;20559;-76
2023/10/28 00:51:06;;;;;;;6.13;1.30;;;11.20;1.00;;;;;;5091386;28;20461;-77
2023/10/28 00:53:32;;;;;;;1.20;1.00;;;11.20;1.00;;;;;;5102918;28;20559;-76
2023/10/28 00:55:59;;;;;;;1.93;1.00;;;11.20;1.00;;;;;;5104550;28;20171;-77
2023/10/28 00:58:26;;;;;;;2.03;1.10;;;11.20;1.00;;;;;;5098886;28;20577;-78
2023/10/28 01:00:52;;;;;;;1.40;0.93;;;11.20;1.00;;;;;;5097903;28;20433;-78
2023/10/28 01:03:18;;;;;;;1.73;1.00;;;11.20;1.00;;;;;;5108268;28;20431;-77
2023/10/28 01:05:44;;;;;;;1.43;0.90;;;11.20;1.00;;;;;;5098545;28;20596;-77
2023/10/28 01:08:10;;;;;;;4.30;1.10;;;11.30;1.00;;;;;;5098428;28;20633;-77
2023/10/28 01:10:36;;;;;;;1.97;1.27;;;11.20;1.00;;;;;;5096244;28;20461;-75
2023/10/28 01:13:06;;;;;;;1.77;0.90;;;11.20;1.00;;;;;;5106344;28;20195;-77
2023/10/28 01:15:31;;;;;;;1.50;1.00;;;11.20;1.00;;;;;;5092467;28;20414;-77
2023/10/28 01:17:57;;;;;;;2.30;1.23;;;11.20;1.00;;;;;;5106211;28;20953;-77
2023/10/28 01:20:23;;;;;;;1.53;0.90;;;11.20;1.00;;;;;;5099837;28;20179;-78
2023/10/28 01:22:48;;;;;;;3.80;1.20;;;11.20;1.00;;;;;;5106485;28;20217;-79
2023/10/28 01:25:14;;;;;;;1.40;1.30;;;11.20;1.00;;;;;;5093492;28;20184;-77
2023/10/28 01:27:39;;;;;;;2.40;0.90;;;11.20;1.00;;;;;;5098803;28;20199;-77
2023/10/28 01:30:13;;;;;;;1.20;0.90;;;11.10;1.00;;;;;;5097016;28;20601;-78
2023/10/28 01:32:39;;;;;;;1.67;1.00;;;11.20;1.00;;;;;;5104253;28;20545;-80
2023/10/28 01:35:05;;;;;;;1.47;1.10;;;11.20;1.00;;;;;;5099767;28;20425;-76
2023/10/28 01:37:31;;;;;;;2.00;1.17;;;11.20;1.00;;;;;;5096521;28;20531;-76
2023/10/28 01:39:57;;;;;;;4.00;1.10;;;11.20;1.00;;;;;;5099638;28;20529;-77
2023/10/28 01:42:23;;;;;;;1.80;1.00;;;11.20;1.00;;;;;;5107923;28;20208;-78
2023/10/28 01:44:49;;;;;;;4.13;1.27;;;11.20;1.00;;;;;;5100581;28;20736;-77
2023/10/28 01:47:15;;;;;;;1.40;1.00;;;11.20;1.00;;;;;;5096160;28;20200;-78
2023/10/28 01:49:45;;;;;;;5.13;1.00;;;11.20;1.00;;;;;;5101289;28;20559;-79
2023/10/28 01:52:12;;;;;;;2.77;1.47;;;11.20;1.00;;;;;;5104267;28;20505;-78
2023/10/28 01:54:37;;;;;;;1.30;1.07;;;11.20;1.00;;;;;;5094881;28;20461;-80
2023/10/28 01:57:05;;;;;;;1.33;1.00;;;11.20;1.00;;;;;;5094494;28;20441;-75
2023/10/28 01:59:32;;;;;;;1.63;1.03;;;11.10;1.00;;;;;;5099550;28;20254;-77
2023/10/28 02:02:00;;;;;;;4.23;1.10;;;11.10;1.00;;;;;;5099146;28;20981;-78
2023/10/28 02:04:25;;;;;;;1.20;0.90;;;11.10;1.00;;;;;;5096485;28;20428;-75
2023/10/28 02:06:51;;;;;;;1.30;0.90;;;11.20;1.00;;;;;;5099138;27;20433;-77
2023/10/28 02:09:17;;;;;;;1.97;1.23;;;11.10;1.00;;;;;;5105222;28;20187;-77
2023/10/28 02:11:43;;;;;;;1.10;0.90;;;11.10;1.00;;;;;;5097300;28;20175;-77
2023/10/28 02:14:09;;;;;;;1.37;0.90;;;11.20;1.00;;;;;;5097702;28;20515;-77
2023/10/28 02:16:37;;;;;;;3.57;0.93;;;11.10;1.00;;;;;;5098956;28;20187;-78
2023/10/28 02:19:03;;;;;;;2.20;1.20;;;11.10;1.00;;;;;;5094959;28;20183;-77
2023/10/28 02:21:29;;;;;;;1.60;1.10;;;11.10;1.00;;;;;;5090436;28;20406;-77
2023/10/28 02:23:54;;;;;;;2.10;1.10;;;11.10;1.00;;;;;;5103633;28;20834;-77
2023/10/28 02:26:20;;;;;;;3.30;1.10;;;11.00;1.00;;;;;;5098830;28;20188;-77
2023/10/28 02:28:45;;;;;;;4.00;1.30;;;11.00;1.00;;;;;;5095099;28;20653;-77
2023/10/28 02:31:11;;;;;;;2.50;1.17;;;11.00;1.00;;;;;;5096333;28;20176;-78
2023/10/28 02:33:36;;;;;;;2.67;1.20;;;10.90;1.00;;;;;;5097559;28;20580;-77
2023/10/28 02:36:06;;;;;;;2.23;1.10;;;11.00;1.00;;;;;;5102176;28;20191;-77
2023/10/28 02:38:32;;;;;;;2.10;1.30;;;11.00;1.00;;;;;;5108982;28;20179;-78
2023/10/28 02:40:58;;;;;;;3.23;0.90;;;11.00;1.00;;;;;;5098882;28;20800;-77
2023/10/28 02:43:23;;;;;;;2.23;1.20;;;11.00;1.00;;;;;;5091633;28;20429;-77
2023/10/28 02:45:49;;;;;;;2.80;1.40;;;11.00;1.00;;;;;;5097091;28;20430;-76
2023/10/28 02:48:14;;;;;;;1.97;1.10;;;11.00;1.00;;;;;;5096834;28;20236;-77
2023/10/28 02:50:40;;;;;;;2.83;1.60;;;11.10;1.00;;;;;;5099054;28;20254;-79
2023/10/28 02:53:06;;;;;;;1.87;1.30;;;11.10;1.00;;;;;;5102605;27;20557;-77
2023/10/28 02:55:34;;;;;;;1.87;1.27;;;11.10;1.00;;;;;;5097751;28;20175;-77
2023/10/28 02:58:00;;;;;;;4.17;1.17;;;11.10;1.00;;;;;;5098657;28;20195;-77
2023/10/28 03:00:25;;;;;;;1.63;1.20;;;11.10;1.00;;;;;;5092682;28;20443;-77
2023/10/28 03:02:52;;;;;;;6.30;1.50;;;11.10;1.00;;;;;;5095810;28;20207;-79
2023/10/28 03:05:20;;;;;;;2.23;1.50;;;11.10;1.00;;;;;;5099976;28;20175;-77
2023/10/28 03:07:45;;;;;;;3.83;1.60;;;11.10;1.00;;;;;;5101793;28;20526;-77
2023/10/28 03:10:11;;;;;;;3.90;1.50;;;11.10;1.00;;;;;;5089025;28;20469;-77
2023/10/28 03:12:37;;;;;;;3.63;1.30;;;11.10;1.00;;;;;;5103607;28;20179;-78
2023/10/28 03:15:05;;;;;;;3.20;1.30;;;11.20;1.00;;;;;;5104756;28;20172;-78
2023/10/28 03:17:31;;;;;;;2.90;1.50;;;11.20;1.00;;;;;;5100113;28;20447;-77
2023/10/28 03:19:57;;;;;;;2.80;1.50;;;11.20;1.00;;;;;;5101155;28;20510;-78
2023/10/28 03:22:22;;;;;;;2.37;1.00;;;11.20;1.00;;;;;;5093871;28;20262;-77
2023/10/28 03:24:48;;;;;;;2.90;1.30;;;11.20;1.00;;;;;;5093759;28;20262;-78
2023/10/28 03:27:13;;;;;;;2.30;1.23;;;11.20;1.00;;;;;;5097170;28;20195;-77
2023/10/28 03:29:40;;;;;;;3.90;1.10;;;11.10;1.00;;;;;;5089991;28;20709;-78
2023/10/28 03:32:07;;;;;;;2.80;1.10;;;11.20;1.00;;;;;;5090634;28;20191;-77
2023/10/28 03:34:32;;;;;;;4.57;1.30;;;11.20;1.00;;;;;;5095447;28;20494;-78
2023/10/28 03:36:58;;;;;;;3.57;1.27;;;11.20;1.00;;;;;;5100993;28;20444;-78
2023/10/28 03:39:23;;;;;;;1.77;1.27;;;11.20;1.00;;;;;;5102290;28;20228;-78
2023/10/28 03:41:49;;;;;;;2.13;1.33;;;11.30;1.00;;;;;;5099101;28;20224;-77
2023/10/28 03:44:15;;;;;;;2.30;1.30;;;11.30;1.00;;;;;;5100917;28;20228;-79
2023/10/28 03:46:41;;;;;;;2.40;1.03;;;11.30;1.00;;;;;;5100121;28;20192;-80
2023/10/28 03:49:06;;;;;;;2.17;1.20;;;11.30;1.00;;;;;;5089066;28;20168;-77
2023/10/28 03:51:34;;;;;;;2.57;1.33;;;11.30;1.00;;;;;;5088122;28;20433;-77
2023/10/28 03:53:59;;;;;;;2.07;1.30;;;11.30;1.00;;;;;;5091453;28;20263;-78
2023/10/28 03:56:26;;;;;;;3.27;1.20;;;11.40;1.00;;;;;;5094040;28;20963;-79
2023/10/28 03:58:51;;;;;;;2.73;1.30;;;11.40;1.00;;;;;;5096117;28;20677;-77
2023/10/28 04:01:17;;;;;;;1.30;1.17;;;11.40;1.00;;;;;;5095066;28;20460;-75
2023/10/28 04:03:42;;;;;;;2.27;1.20;;;11.40;1.00;;;;;;5092404;28;20320;-77
2023/10/28 04:06:08;;;;;;;2.60;1.30;;;11.40;1.00;;;;;;5090430;28;20207;-77
2023/10/28 04:08:33;;;;;;;3.53;1.50;;;11.40;1.00;;;;;;5089362;28;20285;-78
2023/10/28 04:10:59;;;;;;;3.07;1.17;;;11.40;1.00;;;;;;5098813;28;20215;-77
2023/10/28 04:13:25;;;;;;;4.40;1.37;;;11.40;1.00;;;;;;5107372;28;20221;-78
2023/10/28 04:15:50;;;;;;;2.30;1.20;;;11.40;1.00;;;;;;5090831;28;20262;-77
2023/10/28 04:18:15;;;;;;;4.90;1.20;;;11.40;1.00;;;;;;5101551;28;20168;-75
2023/10/28 04:20:41;;;;;;;2.30;1.03;;;11.40;1.00;;;;;;5100086;28;20210;-75
2023/10/28 04:23:07;;;;;;;3.70;1.20;;;11.40;1.00;;;;;;5090185;28;20174;-78
2023/10/28 04:25:32;;;;;;;1.70;1.17;;;11.40;1.00;;;;;;5095761;28;20206;-77
2023/10/28 04:27:58;;;;;;;6.07;1.57;;;11.40;1.00;;;;;;5100781;28;20199;-77
2023/10/28 04:30:23;;;;;;;2.07;1.40;;;11.50;1.00;;;;;;5089252;28;20240;-78
2023/10/28 04:32:49;;;;;;;2.83;1.33;;;11.50;1.00;;;;;;5093805;28;20653;-79
2023/10/28 04:35:15;;;;;;;2.30;1.40;;;11.50;1.00;;;;;;5093384;28;20180;-77
2023/10/28 04:37:40;;;;;;;5.23;1.30;;;11.60;1.00;;;;;;5098500;28;20183;-76
2023/10/28 04:40:06;;;;;;;2.43;1.43;;;10.00;1.00;;;;;;5096190;28;20945;-77
2023/10/28 04:42:32;;;;;;;2.10;1.30;;;11.60;1.00;;;;;;5095867;28;20248;-77
2023/10/28 04:44:58;;;;;;;2.70;1.20;;;11.60;1.00;;;;;;5098384;28;20436;-77
2023/10/28 04:47:24;;;;;;;2.80;1.20;;;11.60;1.00;;;;;;5092758;28;20215;-79
2023/10/28 04:49:50;;;;;;;1.87;1.40;;;11.60;1.00;;;;;;5091196;28;20179;-77
2023/10/28 04:52:15;;;;;;;7.23;1.43;;;11.50;1.00;;;;;;5099629;28;20726;-77
2023/10/28 04:54:41;;;;;;;2.90;1.50;;;11.40;1.00;;;;;;5098622;28;20476;-74
2023/10/28 04:57:09;;;;;;;2.87;1.10;;;11.40;1.00;;;;;;5099282;28;20187;-76
2023/10/28 04:59:34;;;;;;;3.83;1.57;;;11.30;1.00;;;;;;5092464;28;20172;-78
2023/10/28 05:02:00;;;;;;;4.57;1.40;;;11.30;1.00;;;;;;5098286;28;20428;-74
2023/10/28 05:04:26;;;;;;;3.40;1.70;;;11.30;1.00;;;;;;5097422;28;20488;-74
2023/10/28 05:06:53;;;;;;;4.40;2.00;;;11.30;1.00;;;;;;5091011;28;20336;-77
2023/10/28 05:09:20;;;;;;;7.77;1.77;;;11.20;1.00;;;;;;5098623;28;20433;-77
2023/10/28 05:11:46;;;;;;;4.40;2.03;;;11.20;1.00;;;;;;5105564;28;20433;-75
2023/10/28 05:14:12;;;;;;;4.80;1.87;;;11.20;1.00;;;;;;5102574;28;20562;-77
2023/10/28 05:16:37;;;;;;;4.37;2.27;;;11.20;1.00;;;;;;5103399;28;20900;-75
2023/10/28 05:19:03;;;;;;;2.50;1.90;;;11.30;1.00;;;;;;5095453;28;20184;-77
2023/10/28 05:21:29;;;;;;;1.87;1.40;;;11.50;1.00;;;;;;5099333;28;20766;-77
2023/10/28 05:23:54;;;;;;;5.50;1.80;;;11.40;1.00;;;;;;5107743;28;20175;-77
2023/10/28 05:26:20;;;;;;;2.57;1.50;;;11.40;1.00;;;;;;5091062;28;20278;-77
2023/10/28 05:28:46;;;;;;;5.20;1.40;;;11.40;1.00;;;;;;5094030;28;20195;-80
2023/10/28 05:31:13;;;;;;;8.60;1.80;;;11.50;1.00;;;;;;5101326;28;20537;-77
2023/10/28 05:33:39;;;;;;;2.40;1.30;;;11.40;1.00;;;;;;5094337;28;20453;-77
2023/10/28 05:36:06;;;;;;;3.60;1.40;;;11.40;1.00;;;;;;5091866;28;20502;-78
2023/10/28 05:38:31;;;;;;;3.50;1.47;;;11.40;1.00;;;;;;5096948;28;20422;-78
2023/10/28 05:40:57;;;;;;;4.10;1.77;;;11.40;1.00;;;;;;5099468;28;20571;-78
2023/10/28 05:43:22;;;;;;;4.43;1.20;;;11.50;1.00;;;;;;5094976;28;20179;-78
2023/10/28 05:45:48;;;;;;;3.07;1.37;;;11.50;1.00;;;;;;5097496;28;20180;-78
2023/10/28 05:48:14;;;;;;;4.20;1.37;;;11.50;1.00;;;;;;5094011;28;20172;-76
2023/10/28 05:50:39;;;;;;;1.70;1.00;;;11.50;1.00;;;;;;5101975;28;20553;-78
2023/10/28 05:53:05;;;;;;;4.37;1.40;;;11.60;1.00;;;;;;5095448;27;20298;-77
2023/10/28 05:55:31;;;;;;;3.97;1.80;;;11.60;1.00;;;;;;5102288;28;20179;-80
2023/10/28 05:57:57;;;;;;;8.90;1.80;;;11.60;1.00;;;;;;5104339;28;20191;-78
2023/10/28 06:00:23;;;;;;;3.03;1.57;;;11.60;1.00;;;;;;5107569;28;20824;-77
2023/10/28 06:02:48;;;;;;;1.87;1.17;;;11.70;1.00;;;;;;5101017;28;20549;-77
2023/10/28 06:05:14;;;;;;;4.17;1.30;;;11.60;1.00;;;;;;5095720;28;20569;-78
2023/10/28 06:07:41;;;;;;;1.30;1.20;;;11.70;1.00;;;;;;5101795;28;20278;-78
2023/10/28 06:10:10;;;;;;;4.00;1.60;;;11.70;1.00;;;;;;5091093;28;20178;-75
2023/10/28 06:12:37;;;;;;;2.57;1.40;;;11.70;1.00;;;;;;5109392;28;20471;-81
2023/10/28 06:15:03;;;;;;;5.17;1.60;;;11.70;1.00;;;;;;5097539;28;20514;-78
2023/10/28 06:17:28;;;;;;;2.53;1.50;;;11.70;1.00;;;;;;5090466;28;20446;-79
2023/10/28 06:19:54;;;;;;;6.03;1.40;;;11.70;1.00;;;;;;5103305;28;20182;-76
2023/10/28 06:22:19;;;;;;;4.80;1.67;;;11.70;1.00;;;;;;5093527;28;20179;-79
2023/10/28 06:24:45;;;;;;;4.17;1.13;;;11.70;1.00;;;;;;5103701;28;20186;-77
2023/10/28 06:27:10;;;;;;;4.10;1.33;;;11.70;1.00;;;;;;5098830;28;20684;-79
2023/10/28 06:29:37;;;;;;;1.40;1.10;;;11.70;1.00;;;;;;5095889;28;20244;-81
2023/10/28 06:32:03;;;;;;;4.43;1.20;;;11.70;1.00;;;;;;5092699;28;20171;-76
2023/10/28 06:34:28;;;;;;;2.80;1.10;;;11.70;1.00;;;;;;5091138;28;20526;-78
2023/10/28 06:36:55;;;;;;;2.30;1.60;;;11.40;1.00;;;;;;5089941;28;20226;-75
2023/10/28 06:39:21;;;;;;;2.97;1.00;;;11.70;1.00;;;;;;5103073;28;20193;-79
2023/10/28 06:41:47;;;;;;;4.80;1.20;;;11.70;1.00;;;;;;5098259;28;20474;-79
2023/10/28 06:44:13;;;;;;;5.10;1.30;;;11.80;1.00;;;;;;5100707;28;20440;-83
2023/10/28 06:46:38;;;;;;;1.90;1.30;;;11.80;1.00;;;;;;5090548;28;21215;-78
2023/10/28 06:49:08;;;;;;;4.10;1.50;;;11.80;1.00;;;;;;5099266;28;20734;-78
2023/10/28 06:51:33;;;;;;;1.57;1.20;;;11.90;1.00;;;;;;5098109;28;20279;-78
2023/10/28 06:53:59;;;;;;;5.70;1.40;;;11.80;1.00;;;;;;5090579;28;20458;-78
2023/10/28 06:56:27;;;;;;;3.83;1.27;;;11.90;1.00;;;;;;5091316;28;20183;-78
2023/10/28 06:58:53;;;;;;;1.93;1.30;;;;;;;;;;5098625;28;20266;-78
2023/10/28 07:01:19;;;;;;;4.80;1.60;;;11.70;1.00;;;;;;5099655;28;20927;-75
2023/10/28 07:03:46;;;;;;;2.20;1.30;;;12.10;1.00;;;;;;5100397;28;20467;-75
2023/10/28 07:06:14;;;;;;;3.50;1.47;;;12.30;1.00;;;;;;5099818;28;20199;-75
2023/10/28 07:08:48;;;;;;;8.10;1.57;;;12.30;1.00;;;;;;5094116;28;20436;-77
2023/10/28 07:11:13;;;;;;;3.87;1.10;;;12.30;1.00;;;;;;5090311;28;20817;-77
2023/10/28 07:13:39;;;;;;;3.90;1.20;;;12.50;1.00;;;;;;5097057;28;20533;-76
2023/10/28 07:16:06;;;;;;;2.53;1.33;;;12.50;1.00;;;;;;5089109;28;20245;-75
2023/10/28 07:18:32;;;;;;;2.40;1.37;;;12.60;1.00;;;;;;5089442;28;21072;-75
2023/10/28 07:20:58;;;;;;;5.33;1.50;;;12.60;1.00;;;;;;5090955;28;20789;-75
2023/10/28 07:23:27;;;;;;;3.80;1.30;;;12.70;1.00;;;;;;5096354;28;20529;-75
2023/10/28 07:25:54;;;;;;;1.93;1.17;;;12.80;1.00;;;;;;5094633;28;20461;-76
2023/10/28 07:28:20;;;;;;;1.20;1.00;;;12.80;1.00;;;;;;5092743;28;20476;-76
2023/10/28 07:30:51;;;;;;;4.17;1.50;;;13.10;1.00;;;;;;5093206;28;20441;-78
2023/10/28 07:33:21;;;;;;;2.30;1.10;;;12.70;1.00;;;;;;5101201;28;20469;-76
2023/10/28 07:35:48;;;;;;;6.63;1.20;;;12.80;1.00;;;;;;5102863;28;20540;-75
2023/10/28 07:38:15;;;;;;;2.90;1.40;;;12.80;1.00;;;;;;5106814;28;20484;-76
2023/10/28 07:40:41;;;;;;;1.80;1.30;;;12.90;1.00;;;;;;5095854;28;20596;-75
2023/10/28 07:43:07;;;;;;;1.60;1.10;;;13.20;1.00;;;;;;5094538;28;20428;-75
2023/10/28 07:45:33;;;;;;;6.50;1.50;;;13.40;1.00;;;;;;5092998;28;20502;-75
2023/10/28 07:47:59;;;;;;;2.47;1.40;;;13.50;1.00;;;;;;5100441;28;20195;-78
2023/10/28 07:50:24;;;;;;;1.53;1.13;;;13.90;1.00;;;;;;5091570;28;20220;-77
2023/10/28 07:52:50;;;;;;;1.80;1.30;;;13.70;1.00;;;;;;5091274;28;20182;-75
2023/10/28 07:55:16;;;;;;;3.27;1.30;;;13.70;1.00;;;;;;5101122;28;20567;-74
2023/10/28 07:57:41;;;;;;;2.13;1.17;;;13.70;1.00;;;;;;5103295;28;20187;-77
2023/10/28 08:00:10;;;;;;;3.17;1.43;;;13.80;1.00;;;;;;5104375;28;20254;-77
2023/10/28 08:02:36;;;;;;;3.83;1.50;;;13.90;1.00;;;;;;5095198;28;20531;-78
2023/10/28 08:05:03;;;;;;;2.60;1.03;;;14.00;1.00;;;;;;5101512;28;20429;-77
2023/10/28 08:07:28;;;;;;;1.83;1.33;;;14.20;1.00;;;;;;5107769;28;20724;-74
2023/10/28 08:09:54;;;;;;;2.87;1.27;;;14.50;1.00;;;;;;5102333;28;20433;-75
2023/10/28 08:12:19;;;;;;;1.93;1.20;;;14.80;1.00;;;;;;5097097;28;20572;-75
2023/10/28 08:14:47;;;;;;;2.50;1.30;;;15.00;1.00;;;;;;5096267;28;20535;-77
2023/10/28 08:17:12;;;;;;;2.50;1.40;;;15.20;1.00;;;;;;5099350;28;20278;-75
2023/10/28 08:19:38;;;;;;;3.67;1.10;;;15.10;1.00;;;;;;5099413;28;20956;-75
2023/10/28 08:22:03;;;;;;;2.50;1.27;;;14.90;1.00;;;;;;5100050;28;20997;-75
2023/10/28 08:24:29;;;;;;;3.50;1.20;;;14.80;1.00;;;;;;5103216;28;20653;-81
2023/10/28 08:26:56;;;;;;;3.30;1.23;;;14.70;1.00;;;;;;5097934;28;20196;-77
2023/10/28 08:29:23;;;;;;;2.60;1.20;;;14.50;1.00;;;;;;5097505;28;20240;-75
2023/10/28 08:31:49;;;;;;;2.90;1.10;;;14.50;1.00;;;;;;5097369;28;20427;-76
2023/10/28 08:34:15;;;;;;;2.47;1.50;;;14.30;1.00;;;;;;5107532;28;20464;-76
2023/10/28 08:36:44;;;;;;;1.70;1.17;;;14.20;1.00;;;;;;5099684;28;20445;-76
2023/10/28 08:39:10;;;;;;;3.00;1.43;;;14.30;1.00;;;;;;5107715;28;20250;-75
2023/10/28 08:41:35;;;;;;;5.70;1.37;;;14.30;1.00;;;;;;5103063;28;20498;-75
2023/10/28 08:44:06;;;;;;;1.93;1.00;;;14.40;1.00;;;;;;5105201;28;20930;-76
2023/10/28 08:46:32;;;;;;;1.70;1.10;;;14.60;1.00;;;;;;5095583;28;20210;-75
2023/10/28 08:48:59;;;;;;;3.73;1.40;;;14.80;1.00;;;;;;5108708;28;20429;-78
2023/10/28 08:51:25;;;;;;;6.70;1.30;;;14.80;1.00;;;;;;5104375;28;20420;-77
2023/10/28 08:53:56;;;;;;;1.63;1.23;;;14.80;1.00;;;;;;5105574;28;20461;-75
2023/10/28 08:56:25;;;;;;;4.60;1.40;;;14.70;1.00;;;;;;5100704;28;21002;-71
2023/10/28 08:58:53;;;;;;;1.97;1.20;;;14.80;1.00;;;;;;5101262;28;20779;-75
2023/10/28 09:01:22;;;;;;;2.90;1.30;;;14.70;1.00;;;;;;5103116;28;20622;-72
2023/10/28 09:03:54;;;;;;;2.90;1.40;;;14.80;1.00;;;;;;5100862;28;20432;-72
2023/10/28 09:06:20;;;;;;;3.80;1.30;;;14.90;1.00;;;;;;5096114;28;20457;-75
2023/10/28 09:08:46;;;;;;;3.10;1.60;;;15.10;1.00;;;;;;5096594;28;20490;-73
2023/10/28 09:11:12;;;;;;;1.80;1.00;;;15.00;1.00;;;;;;5100452;28;20461;-74
2023/10/28 09:13:41;;;;;;;2.67;1.30;;;15.00;1.00;;;;;;5101168;28;20978;-74
2023/10/28 09:16:08;;;;;;;8.80;1.30;;;15.10;1.00;;;;;;5100499;28;20440;-74
2023/10/28 09:18:38;;;;;;;2.03;1.13;;;15.40;1.00;;;;;;5101640;28;20417;-73
2023/10/28 09:21:06;;;;;;;5.47;1.20;;;15.80;1.00;;;;;;5101847;28;20464;-74
2023/10/28 09:23:32;;;;;;;3.93;1.40;;;16.60;1.00;;;;;;5102477;28;20422;-78
2023/10/28 09:25:58;;;;;;;3.90;1.50;;;19.00;1.00;;;;;;5099621;28;20536;-74
2023/10/28 09:28:25;;;;;;;3.50;1.60;;;19.10;1.00;;;;;;5100468;28;20186;-73
2023/10/28 09:30:50;;;;;;;3.67;1.77;;;20.60;1.00;;;;;;5096331;28;20206;-76
2023/10/28 09:33:17;;;;;;;4.93;1.50;;;21.70;1.00;;;;;;5092416;28;20879;-74
2023/10/28 09:35:44;;;;;;;3.43;1.33;;;23.50;1.00;;;;;;5093645;28;20541;-77
2023/10/28 09:38:13;;;;;;;4.50;1.43;;;23.40;1.00;;;;;;5095438;28;20424;-74
2023/10/28 09:40:39;;;;;;;3.50;1.40;;;23.90;1.00;;;;;;5096129;28;20421;-76
2023/10/28 09:43:06;;;;;;;3.63;1.60;;;24.20;1.00;;;;;;5104925;28;20435;-76
2023/10/28 09:45:32;;;;;;;3.73;1.50;;;24.90;1.00;;;;;;5097692;28;20439;-75
2023/10/28 09:48:05;;;;;;;3.63;1.20;;;26.20;1.00;;;;;;5098335;28;20449;-77
2023/10/28 09:50:34;;;;;;;5.10;1.60;;;25.50;1.00;;;;;;5091622;28;20422;-78
2023/10/28 09:53:01;;;;;;;5.10;1.50;;;24.90;1.00;;;;;;5096131;28;20512;-74
2023/10/28 09:55:34;;;;;;;4.20;1.50;;;24.50;1.00;;;;;;5098601;28;20429;-77
2023/10/28 09:58:24;;;;;;;3.10;1.37;;;23.40;1.00;;;;;;5093688;28;20453;-76
2023/10/28 10:00:54;;;;;;;4.70;1.60;;;22.00;1.00;;;;;;5098823;28;20802;-73
2023/10/28 10:03:37;;;;;;;8.00;1.63;;;22.60;1.00;;;;;;5093618;28;20722;-73
2023/10/28 10:06:03;;;;;;;3.10;1.07;;;22.60;1.00;;;;;;5102122;28;20597;-75
2023/10/28 10:08:28;;;;;;;3.73;1.40;;;22.40;1.00;;;;;;5108779;28;20498;-77
2023/10/28 10:10:57;;;;;;;3.90;1.50;;;22.30;1.00;;;;;;5094768;28;20203;-79
2023/10/28 10:13:23;;;;;;;5.90;1.70;;;21.70;1.00;;;;;;5098957;28;20525;-76
2023/10/28 10:16:02;;;;;;;6.67;1.70;;;19.80;1.00;;;;;;5106964;28;20429;-76
2023/10/28 10:18:32;;;;;;;6.27;1.53;;;19.90;1.00;;;;;;5097090;28;20171;-75
2023/10/28 10:21:10;;;;;;;8.80;1.83;;;19.20;1.00;;;;;;5090792;28;20491;-75
2023/10/28 10:23:43;;;;;;;5.60;1.63;;;18.70;1.00;;;;;;5092774;28;20426;-74
2023/10/28 10:26:29;;;;;;;4.60;1.53;;;18.70;1.00;;;;;;5098692;28;20928;-72
2023/10/28 10:28:56;;;;;;;4.90;1.70;;;18.60;1.00;;;;;;5097380;28;20444;-75
2023/10/28 10:31:23;;;;;;;4.03;1.40;;;18.50;1.00;;;;;;5103353;28;20972;-71
2023/10/28 10:34:09;;;;;;;3.97;1.47;;;18.20;1.00;;;;;;5094501;28;20526;-74
2023/10/28 10:36:44;;;;;;;2.50;1.27;;;17.70;1.00;;;;;;5093765;28;20538;-74
2023/10/28 10:39:17;;;;;;;3.30;1.63;;;17.20;1.00;;;;;;5093036;28;20514;-76
2023/10/28 10:41:52;;;;;;;4.23;1.40;;;17.10;1.00;;;;;;5092213;28;20418;-74
2023/10/28 10:44:37;;;;;;;6.67;1.60;;;16.90;1.00;;;;;;5093230;28;20428;-77
2023/10/28 10:47:04;;;;;;;3.87;1.30;;;16.70;1.00;;;;;;5091420;28;20812;-74
2023/10/28 10:49:34;;;;;;;5.80;1.47;;;16.70;1.00;;;;;;5097461;28;21050;-74
2023/10/28 10:52:01;;;;;;;2.87;1.20;;;16.70;1.00;;;;;;5097289;28;20938;-74
2023/10/28 10:54:34;;;;;;;6.80;1.40;;;16.80;1.00;;;;;;5095600;28;20468;-74
2023/10/28 10:57:00;;;;;;;6.60;1.70;;;16.90;1.00;;;;;;5093420;28;20442;-77
2023/10/28 10:59:28;;;;;;;4.27;1.60;;;17.00;1.00;;;;;;5090426;28;20525;-74
2023/10/28 11:01:56;;;;;;;3.20;1.40;;;17.00;1.00;;;;;;5097695;28;20441;-76
2023/10/28 11:04:23;;;;;;;2.20;1.40;;;16.80;1.00;;;;;;5096850;28;20430;-73
2023/10/28 11:06:48;;;;;;;5.33;1.77;;;16.70;1.00;;;;;;5099161;28;20456;-74
2023/10/28 11:09:15;;;;;;;3.00;1.40;;;16.70;1.00;;;;;;5091685;28;20484;-74
2023/10/28 11:11:42;;;;;;;6.77;1.57;;;16.70;1.00;;;;;;5094917;28;20656;-75
2023/10/28 11:14:07;;;;;;;9.23;1.73;;;16.80;1.00;;;;;;5108482;28;20496;-75
2023/10/28 11:16:34;;;;;;;3.47;1.43;;;16.80;1.00;;;;;;5097602;28;20481;-74
2023/10/28 11:19:04;;;;;;;5.97;1.93;;;16.80;1.00;;;;;;5095341;28;20654;-77
2023/10/28 11:21:32;;;;;;;5.63;1.37;;;16.80;1.00;;;;;;5094373;28;20425;-75
2023/10/28 11:23:59;;;;;;;5.20;1.70;;;16.80;1.00;;;;;;5094358;28;20976;-76
2023/10/28 11:26:27;;;;;;;3.87;1.50;;;16.80;1.00;;;;;;5096681;28;20205;-75
2023/10/28 11:28:57;;;;;;;9.70;1.97;;;16.80;1.00;;;;;;5089328;28;20935;-77
2023/10/28 11:31:23;;;;;;;5.73;1.57;;;16.80;1.00;;;;;;5096130;28;20494;-74
2023/10/28 11:33:50;;;;;;;5.37;1.60;;;17.50;1.00;;;;;;5094163;28;20464;-77
2023/10/28 11:36:16;;;;;;;3.30;1.20;;;16.70;1.00;;;;;;5100836;28;20206;-78
2023/10/28 11:38:43;;;;;;;5.43;1.30;;;16.60;1.00;;;;;;5095075;28;20436;-79
2023/10/28 11:41:09;;;;;;;3.67;1.70;;;16.40;1.00;;;;;;5099582;28;20436;-75
2023/10/28 11:43:35;;;;;;;10.30;1.67;;;16.20;1.00;;;;;;5095678;28;20433;-73
2023/10/28 11:46:01;;;;;;;5.33;1.50;;;16.00;1.00;;;;;;5095559;28;20581;-76
2023/10/28 11:48:27;;;;;;;3.57;1.40;;;16.00;1.00;;;;;;5098999;28;20217;-78
2023/10/28 11:50:54;;;;;;;4.10;1.57;;;15.80;1.00;;;;;;5096035;28;20182;-77
2023/10/28 11:53:27;;;;;;;5.30;1.60;;;15.80;1.00;;;;;;5100288;28;20460;-74
2023/10/28 11:55:54;;;;;;;7.60;1.50;;;15.80;1.00;;;;;;5107224;28;20971;-76
2023/10/28 11:58:20;;;;;;;2.90;1.53;;;15.80;1.00;;;;;;5098777;28;20456;-75
2023/10/28 12:00:50;;;;;;;4.17;1.47;;;15.80;1.00;;;;;;5096362;28;20517;-75
2023/10/28 12:03:17;;;;;;;2.93;1.27;;;15.90;1.00;;;;;;5099306;28;20442;-75
2023/10/28 12:05:42;;;;;;;3.63;1.63;;;15.90;1.00;;;;;;5093681;28;20440;-75
2023/10/28 12:08:10;;;;;;;5.13;1.87;;;15.80;1.00;;;;;;5097084;28;20524;-76
2023/10/28 12:10:43;;;;;;;4.13;1.90;;;15.70;1.00;;;;;;5092426;28;20584;-76
2023/10/28 12:13:11;;;;;;;4.23;1.50;;;15.50;1.00;;;;;;5097003;28;20429;-76
2023/10/28 12:15:37;;;;;;;3.33;1.20;;;15.40;1.00;;;;;;5098385;28;20429;-75
2023/10/28 12:18:03;;;;;;;8.43;1.50;;;15.40;1.00;;;;;;5097170;28;20529;-75
2023/10/28 12:20:29;;;;;;;8.50;1.83;;;15.30;1.00;;;;;;5103668;28;20591;-75
2023/10/28 12:22:56;;;;;;;8.60;2.23;;;15.40;1.00;;;;;;5096092;28;20267;-76
2023/10/28 12:25:23;;;;;;;5.53;1.50;;;15.30;1.00;;;;;;5100235;28;20172;-79
2023/10/28 12:27:50;;;;;;;7.67;1.70;;;15.30;1.00;;;;;;5097065;28;20512;-75
2023/10/28 12:30:16;;;;;;;5.83;1.67;;;17.10;1.00;;;;;;5098946;28;20442;-78
2023/10/28 12:32:41;;;;;;;6.97;2.00;;;15.20;1.00;;;;;;5100144;28;20425;-75
2023/10/28 12:35:07;;;;;;;3.53;1.53;;;15.20;1.00;;;;;;5094910;28;20214;-75
2023/10/28 12:37:33;;;;;;;3.73;1.37;;;15.00;1.00;;;;;;5095195;28;20750;-77
2023/10/28 12:39:59;;;;;;;6.33;2.07;;;17.60;1.00;;;;;;5098970;28;20516;-77
2023/10/28 12:42:24;;;;;;;3.93;1.43;;;14.90;1.00;;;;;;5097502;28;20425;-74
2023/10/28 12:44:50;;;;;;;6.97;2.00;;;14.80;1.00;;;;;;5094303;28;20270;-75
2023/10/28 12:47:15;;;;;;;8.10;1.60;;;14.70;1.00;;;;;;5108075;28;20493;-76
2023/10/28 12:49:41;;;;;;;4.50;1.47;;;14.60;1.00;;;;;;5100248;28;20544;-74
2023/10/28 12:52:07;;;;;;;1.93;1.30;;;14.50;1.00;;;;;;5098974;28;20187;-76
2023/10/28 12:54:32;;;;;;;2.97;1.60;;;14.50;1.00;;;;;;5093297;28;20213;-77